sensor_id;sensor_type;location;lat;lon;timestamp;P1;durP1;ratioP1;P2;durP2;ratioP2
71320;SDS011;59118;54.322;18.576;2022-12-01T00:02:27;42.93;;;15.63;;
71320;SDS011;59118;54.322;18.576;2022-12-01T00:04:55;42.55;;;15.52;;
71320;SDS011;59118;54.322;18.576;2022-12-01T00:07:23;43.55;;;16.27;;
71320;SDS011;59118;54.322;18.576;2022-12-01T00:09:50;37.28;;;15.18;;
71320;SDS011;59118;54.322;18.576;2022-12-01T00:12:35;37.22;;;14.82;;
71320;SDS011;59118;54.322;18.576;2022-12-01T00:15:01;36.97;;;15.93;;
71320;SDS011;59118;54.322;18.576;2022-12-01T00:17:28;42.15;;;16.48;;
71320;SDS011;59118;54.322;18.576;2022-12-01T00:20:03;39.42;;;15.75;;
71320;SDS011;59118;54.322;18.576;2022-12-01T00:22:33;37.55;;;14.63;;
71320;SDS011;59118;54.322;18.576;2022-12-01T00:25:01;37.55;;;15.05;;
71320;SDS011;59118;54.322;18.576;2022-12-01T00:27:28;35.90;;;14.90;;
71320;SDS011;59118;54.322;18.576;2022-12-01T00:29:55;38.35;;;15.65;;
71320;SDS011;59118;54.322;18.576;2022-12-01T00:32:21;38.38;;;15.00;;
71320;SDS011;59118;54.322;18.576;2022-12-01T00:34:48;37.30;;;15.30;;
71320;SDS011;59118;54.322;18.576;2022-12-01T00:37:17;37.05;;;14.82;;
71320;SDS011;59118;54.322;18.576;2022-12-01T00:39:43;37.17;;;13.17;;
71320;SDS011;59118;54.322;18.576;2022-12-01T00:42:11;35.03;;;14.10;;
71320;SDS011;59118;54.322;18.576;2022-12-01T00:44:40;33.33;;;13.00;;
71320;SDS011;59118;54.322;18.576;2022-12-01T00:47:06;32.20;;;13.15;;
71320;SDS011;59118;54.322;18.576;2022-12-01T00:49:33;34.92;;;13.82;;
71320;SDS011;59118;54.322;18.576;2022-12-01T00:52:07;33.30;;;14.07;;
71320;SDS011;59118;54.322;18.576;2022-12-01T00:54:37;38.28;;;14.52;;
71320;SDS011;59118;54.322;18.576;2022-12-01T00:57:11;29.90;;;12.40;;
71320;SDS011;59118;54.322;18.576;2022-12-01T00:59:42;35.72;;;13.10;;
71320;SDS011;59118;54.322;18.576;2022-12-01T01:02:08;32.40;;;13.05;;
71320;SDS011;59118;54.322;18.576;2022-12-01T01:04:37;29.90;;;12.40;;
71320;SDS011;59118;54.322;18.576;2022-12-01T01:07:05;37.25;;;12.85;;
71320;SDS011;59118;54.322;18.576;2022-12-01T01:09:33;31.42;;;12.27;;
71320;SDS011;59118;54.322;18.576;2022-12-01T01:12:05;33.63;;;13.43;;
71320;SDS011;59118;54.322;18.576;2022-12-01T01:14:34;30.05;;;12.40;;
71320;SDS011;59118;54.322;18.576;2022-12-01T01:17:01;35.27;;;14.20;;
71320;SDS011;59118;54.322;18.576;2022-12-01T01:19:28;30.52;;;12.13;;
71320;SDS011;59118;54.322;18.576;2022-12-01T01:21:54;31.45;;;12.75;;
71320;SDS011;59118;54.322;18.576;2022-12-01T01:24:21;31.10;;;12.55;;
71320;SDS011;59118;54.322;18.576;2022-12-01T01:26:47;28.33;;;12.23;;
71320;SDS011;59118;54.322;18.576;2022-12-01T01:29:14;27.83;;;12.00;;
71320;SDS011;59118;54.322;18.576;2022-12-01T01:31:40;27.58;;;11.63;;
71320;SDS011;59118;54.322;18.576;2022-12-01T01:34:08;25.80;;;11.23;;
71320;SDS011;59118;54.322;18.576;2022-12-01T01:36:37;26.05;;;11.15;;
71320;SDS011;59118;54.322;18.576;2022-12-01T01:39:05;28.35;;;10.57;;
71320;SDS011;59118;54.322;18.576;2022-12-01T01:41:32;24.10;;;10.83;;
71320;SDS011;59118;54.322;18.576;2022-12-01T01:44:02;26.55;;;10.75;;
71320;SDS011;59118;54.322;18.576;2022-12-01T01:46:51;25.55;;;10.95;;
71320;SDS011;59118;54.322;18.576;2022-12-01T01:49:17;24.17;;;10.65;;
71320;SDS011;59118;54.322;18.576;2022-12-01T01:51:47;25.05;;;10.55;;
71320;SDS011;59118;54.322;18.576;2022-12-01T01:54:23;26.13;;;10.93;;
71320;SDS011;59118;54.322;18.576;2022-12-01T01:56:53;23.88;;;10.43;;
71320;SDS011;59118;54.322;18.576;2022-12-01T01:59:20;23.65;;;10.00;;
71320;SDS011;59118;54.322;18.576;2022-12-01T02:01:54;22.08;;;9.55;;
71320;SDS011;59118;54.322;18.576;2022-12-01T02:04:22;22.40;;;9.48;;
71320;SDS011;59118;54.322;18.576;2022-12-01T02:07:03;22.90;;;9.67;;
71320;SDS011;59118;54.322;18.576;2022-12-01T02:09:44;23.60;;;9.15;;
71320;SDS011;59118;54.322;18.576;2022-12-01T02:37:55;20.98;;;9.20;;
71320;SDS011;59118;54.322;18.576;2022-12-01T02:40:28;21.90;;;8.93;;
71320;SDS011;59118;54.322;18.576;2022-12-01T02:45:50;23.95;;;9.75;;
71320;SDS011;59118;54.322;18.576;2022-12-01T02:48:21;24.37;;;9.47;;
71320;SDS011;59118;54.322;18.576;2022-12-01T02:50:50;23.23;;;9.35;;
71320;SDS011;59118;54.322;18.576;2022-12-01T02:53:22;24.98;;;9.73;;
71320;SDS011;59118;54.322;18.576;2022-12-01T02:55:54;20.67;;;9.32;;
71320;SDS011;59118;54.322;18.576;2022-12-01T02:58:44;22.63;;;9.35;;
71320;SDS011;59118;54.322;18.576;2022-12-01T03:04:26;24.10;;;9.15;;
71320;SDS011;59118;54.322;18.576;2022-12-01T03:06:58;22.52;;;8.88;;
71320;SDS011;59118;54.322;18.576;2022-12-01T03:18:23;21.55;;;8.93;;
71320;SDS011;59118;54.322;18.576;2022-12-01T03:21:13;22.60;;;9.02;;
71320;SDS011;59118;54.322;18.576;2022-12-01T03:24:14;21.27;;;8.95;;
71320;SDS011;59118;54.322;18.576;2022-12-01T03:27:01;18.55;;;8.30;;
71320;SDS011;59118;54.322;18.576;2022-12-01T03:29:33;23.07;;;9.23;;
71320;SDS011;59118;54.322;18.576;2022-12-01T03:32:46;22.17;;;8.93;;
71320;SDS011;59118;54.322;18.576;2022-12-01T03:35:11;21.38;;;8.23;;
71320;SDS011;59118;54.322;18.576;2022-12-01T03:41:03;17.60;;;7.70;;
71320;SDS011;59118;54.322;18.576;2022-12-01T03:44:51;19.57;;;7.90;;
71320;SDS011;59118;54.322;18.576;2022-12-01T03:47:31;20.85;;;8.40;;
71320;SDS011;59118;54.322;18.576;2022-12-01T03:51:20;19.42;;;8.40;;
71320;SDS011;59118;54.322;18.576;2022-12-01T03:57:55;20.83;;;7.90;;
71320;SDS011;59118;54.322;18.576;2022-12-01T04:00:25;20.80;;;9.20;;
71320;SDS011;59118;54.322;18.576;2022-12-01T04:02:58;23.30;;;9.35;;
71320;SDS011;59118;54.322;18.576;2022-12-01T04:06:26;21.85;;;8.95;;
71320;SDS011;59118;54.322;18.576;2022-12-01T04:09:08;22.02;;;9.93;;
71320;SDS011;59118;54.322;18.576;2022-12-01T04:12:17;20.85;;;8.98;;
71320;SDS011;59118;54.322;18.576;2022-12-01T04:14:56;19.50;;;7.97;;
71320;SDS011;59118;54.322;18.576;2022-12-01T04:17:23;18.13;;;8.00;;
71320;SDS011;59118;54.322;18.576;2022-12-01T04:19:50;19.30;;;7.97;;
71320;SDS011;59118;54.322;18.576;2022-12-01T04:22:17;18.50;;;7.50;;
71320;SDS011;59118;54.322;18.576;2022-12-01T04:24:43;19.00;;;8.38;;
71320;SDS011;59118;54.322;18.576;2022-12-01T04:27:13;15.53;;;6.30;;
71320;SDS011;59118;54.322;18.576;2022-12-01T04:29:48;19.02;;;7.88;;
71320;SDS011;59118;54.322;18.576;2022-12-01T04:32:15;17.77;;;7.55;;
71320;SDS011;59118;54.322;18.576;2022-12-01T04:34:42;19.33;;;7.72;;
71320;SDS011;59118;54.322;18.576;2022-12-01T04:37:08;17.88;;;7.78;;
71320;SDS011;59118;54.322;18.576;2022-12-01T04:39:41;16.90;;;7.37;;
71320;SDS011;59118;54.322;18.576;2022-12-01T04:43:15;16.58;;;6.97;;
71320;SDS011;59118;54.322;18.576;2022-12-01T04:45:52;17.33;;;7.22;;
71320;SDS011;59118;54.322;18.576;2022-12-01T04:48:20;17.45;;;7.05;;
71320;SDS011;59118;54.322;18.576;2022-12-01T04:50:50;18.90;;;7.55;;
71320;SDS011;59118;54.322;18.576;2022-12-01T04:53:19;18.53;;;7.27;;
71320;SDS011;59118;54.322;18.576;2022-12-01T04:55:46;18.38;;;7.60;;
71320;SDS011;59118;54.322;18.576;2022-12-01T04:58:13;15.60;;;6.68;;
71320;SDS011;59118;54.322;18.576;2022-12-01T05:00:40;17.52;;;7.18;;
71320;SDS011;59118;54.322;18.576;2022-12-01T05:03:34;17.20;;;7.13;;
71320;SDS011;59118;54.322;18.576;2022-12-01T05:06:15;16.73;;;7.07;;
71320;SDS011;59118;54.322;18.576;2022-12-01T05:08:46;17.88;;;6.78;;
71320;SDS011;59118;54.322;18.576;2022-12-01T05:11:17;18.13;;;7.18;;
71320;SDS011;59118;54.322;18.576;2022-12-01T05:13:48;17.88;;;6.65;;
71320;SDS011;59118;54.322;18.576;2022-12-01T05:16:28;16.90;;;7.13;;
71320;SDS011;59118;54.322;18.576;2022-12-01T05:19:01;15.13;;;6.93;;
71320;SDS011;59118;54.322;18.576;2022-12-01T05:22:07;16.08;;;7.03;;
71320;SDS011;59118;54.322;18.576;2022-12-01T05:24:35;19.58;;;8.00;;
71320;SDS011;59118;54.322;18.576;2022-12-01T05:27:08;14.25;;;5.32;;
71320;SDS011;59118;54.322;18.576;2022-12-01T05:29:35;17.95;;;8.10;;
71320;SDS011;59118;54.322;18.576;2022-12-01T05:32:01;18.80;;;7.73;;
71320;SDS011;59118;54.322;18.576;2022-12-01T05:34:36;15.05;;;7.03;;
71320;SDS011;59118;54.322;18.576;2022-12-01T05:37:13;15.73;;;6.85;;
71320;SDS011;59118;54.322;18.576;2022-12-01T05:39:40;14.10;;;5.65;;
71320;SDS011;59118;54.322;18.576;2022-12-01T05:42:07;12.25;;;6.00;;
71320;SDS011;59118;54.322;18.576;2022-12-01T05:44:39;17.40;;;7.17;;
71320;SDS011;59118;54.322;18.576;2022-12-01T05:47:05;16.63;;;6.60;;
71320;SDS011;59118;54.322;18.576;2022-12-01T05:49:39;19.17;;;7.90;;
71320;SDS011;59118;54.322;18.576;2022-12-01T05:52:11;15.90;;;7.43;;
71320;SDS011;59118;54.322;18.576;2022-12-01T05:54:44;16.85;;;7.65;;
71320;SDS011;59118;54.322;18.576;2022-12-01T05:57:13;20.07;;;8.80;;
71320;SDS011;59118;54.322;18.576;2022-12-01T06:00:59;16.35;;;8.13;;
71320;SDS011;59118;54.322;18.576;2022-12-01T06:03:30;14.32;;;6.25;;
71320;SDS011;59118;54.322;18.576;2022-12-01T06:05:58;14.23;;;7.35;;
71320;SDS011;59118;54.322;18.576;2022-12-01T06:08:26;20.15;;;7.78;;
71320;SDS011;59118;54.322;18.576;2022-12-01T06:10:52;19.10;;;7.37;;
71320;SDS011;59118;54.322;18.576;2022-12-01T06:13:28;17.23;;;7.75;;
71320;SDS011;59118;54.322;18.576;2022-12-01T06:16:03;16.27;;;6.85;;
71320;SDS011;59118;54.322;18.576;2022-12-01T06:18:32;17.17;;;7.82;;
71320;SDS011;59118;54.322;18.576;2022-12-01T06:21:13;13.35;;;5.30;;
71320;SDS011;59118;54.322;18.576;2022-12-01T06:23:39;16.97;;;7.03;;
71320;SDS011;59118;54.322;18.576;2022-12-01T06:26:07;16.88;;;7.28;;
71320;SDS011;59118;54.322;18.576;2022-12-01T06:28:33;19.00;;;7.82;;
71320;SDS011;59118;54.322;18.576;2022-12-01T06:31:00;18.35;;;7.53;;
71320;SDS011;59118;54.322;18.576;2022-12-01T06:33:29;21.10;;;8.32;;
71320;SDS011;59118;54.322;18.576;2022-12-01T06:36:02;18.43;;;7.87;;
71320;SDS011;59118;54.322;18.576;2022-12-01T06:38:37;22.55;;;8.55;;
71320;SDS011;59118;54.322;18.576;2022-12-01T06:41:16;21.65;;;9.27;;
71320;SDS011;59118;54.322;18.576;2022-12-01T06:44:05;20.77;;;8.73;;
71320;SDS011;59118;54.322;18.576;2022-12-01T06:46:35;21.38;;;8.65;;
71320;SDS011;59118;54.322;18.576;2022-12-01T06:53:03;17.15;;;7.88;;
71320;SDS011;59118;54.322;18.576;2022-12-01T06:55:30;19.85;;;8.43;;
71320;SDS011;59118;54.322;18.576;2022-12-01T06:57:58;16.52;;;6.93;;
71320;SDS011;59118;54.322;18.576;2022-12-01T07:00:25;23.73;;;9.10;;
71320;SDS011;59118;54.322;18.576;2022-12-01T07:02:52;18.23;;;8.03;;
71320;SDS011;59118;54.322;18.576;2022-12-01T07:05:18;20.25;;;8.73;;
71320;SDS011;59118;54.322;18.576;2022-12-01T07:07:45;18.17;;;8.68;;
71320;SDS011;59118;54.322;18.576;2022-12-01T07:10:12;22.60;;;9.38;;
71320;SDS011;59118;54.322;18.576;2022-12-01T07:12:40;18.77;;;8.43;;
71320;SDS011;59118;54.322;18.576;2022-12-01T07:15:07;20.73;;;9.13;;
71320;SDS011;59118;54.322;18.576;2022-12-01T07:17:34;21.02;;;9.05;;
71320;SDS011;59118;54.322;18.576;2022-12-01T07:20:01;26.05;;;10.80;;
71320;SDS011;59118;54.322;18.576;2022-12-01T07:22:29;23.40;;;10.07;;
71320;SDS011;59118;54.322;18.576;2022-12-01T07:25:04;25.27;;;10.35;;
71320;SDS011;59118;54.322;18.576;2022-12-01T07:27:31;21.43;;;9.20;;
71320;SDS011;59118;54.322;18.576;2022-12-01T07:29:57;26.38;;;9.90;;
71320;SDS011;59118;54.322;18.576;2022-12-01T07:32:24;21.98;;;9.77;;
71320;SDS011;59118;54.322;18.576;2022-12-01T07:34:50;22.90;;;9.23;;
71320;SDS011;59118;54.322;18.576;2022-12-01T07:37:17;21.15;;;9.60;;
71320;SDS011;59118;54.322;18.576;2022-12-01T07:39:43;18.33;;;8.47;;
71320;SDS011;59118;54.322;18.576;2022-12-01T07:42:10;21.40;;;9.55;;
71320;SDS011;59118;54.322;18.576;2022-12-01T07:44:36;18.75;;;8.23;;
71320;SDS011;59118;54.322;18.576;2022-12-01T07:47:03;20.70;;;8.40;;
71320;SDS011;59118;54.322;18.576;2022-12-01T07:49:29;19.42;;;7.50;;
71320;SDS011;59118;54.322;18.576;2022-12-01T07:51:56;19.43;;;8.37;;
71320;SDS011;59118;54.322;18.576;2022-12-01T07:54:22;20.27;;;8.68;;
71320;SDS011;59118;54.322;18.576;2022-12-01T07:56:50;19.05;;;8.73;;
71320;SDS011;59118;54.322;18.576;2022-12-01T07:59:17;16.85;;;8.07;;
71320;SDS011;59118;54.322;18.576;2022-12-01T08:01:43;21.60;;;9.07;;
71320;SDS011;59118;54.322;18.576;2022-12-01T08:04:11;20.47;;;8.60;;
71320;SDS011;59118;54.322;18.576;2022-12-01T08:06:37;22.92;;;9.80;;
71320;SDS011;59118;54.322;18.576;2022-12-01T08:09:04;22.27;;;9.65;;
71320;SDS011;59118;54.322;18.576;2022-12-01T08:11:31;22.25;;;9.40;;
71320;SDS011;59118;54.322;18.576;2022-12-01T08:13:57;21.25;;;10.15;;
71320;SDS011;59118;54.322;18.576;2022-12-01T08:16:24;20.90;;;8.87;;
71320;SDS011;59118;54.322;18.576;2022-12-01T08:18:52;21.38;;;8.40;;
71320;SDS011;59118;54.322;18.576;2022-12-01T08:21:20;22.98;;;8.40;;
71320;SDS011;59118;54.322;18.576;2022-12-01T08:23:47;19.42;;;8.95;;
71320;SDS011;59118;54.322;18.576;2022-12-01T08:26:17;20.15;;;8.40;;
71320;SDS011;59118;54.322;18.576;2022-12-01T08:28:44;21.40;;;9.30;;
71320;SDS011;59118;54.322;18.576;2022-12-01T08:31:19;21.40;;;8.82;;
71320;SDS011;59118;54.322;18.576;2022-12-01T08:33:48;20.90;;;9.52;;
71320;SDS011;59118;54.322;18.576;2022-12-01T08:36:17;18.20;;;7.97;;
71320;SDS011;59118;54.322;18.576;2022-12-01T08:38:44;18.95;;;8.05;;
71320;SDS011;59118;54.322;18.576;2022-12-01T08:41:13;20.03;;;8.30;;
71320;SDS011;59118;54.322;18.576;2022-12-01T08:43:40;19.90;;;7.47;;
71320;SDS011;59118;54.322;18.576;2022-12-01T08:46:28;17.17;;;7.60;;
71320;SDS011;59118;54.322;18.576;2022-12-01T08:48:57;18.38;;;7.80;;
71320;SDS011;59118;54.322;18.576;2022-12-01T08:51:24;18.45;;;6.97;;
71320;SDS011;59118;54.322;18.576;2022-12-01T08:53:53;16.97;;;7.33;;
71320;SDS011;59118;54.322;18.576;2022-12-01T08:56:21;17.90;;;7.38;;
71320;SDS011;59118;54.322;18.576;2022-12-01T08:58:50;15.60;;;6.85;;
71320;SDS011;59118;54.322;18.576;2022-12-01T09:01:18;21.15;;;7.95;;
71320;SDS011;59118;54.322;18.576;2022-12-01T09:03:45;18.02;;;7.28;;
71320;SDS011;59118;54.322;18.576;2022-12-01T09:06:13;17.97;;;7.63;;
71320;SDS011;59118;54.322;18.576;2022-12-01T09:08:44;17.13;;;7.32;;
71320;SDS011;59118;54.322;18.576;2022-12-01T09:11:14;15.25;;;6.80;;
71320;SDS011;59118;54.322;18.576;2022-12-01T09:13:42;15.77;;;7.13;;
71320;SDS011;59118;54.322;18.576;2022-12-01T09:16:14;18.40;;;7.10;;
71320;SDS011;59118;54.322;18.576;2022-12-01T09:18:42;17.40;;;7.27;;
71320;SDS011;59118;54.322;18.576;2022-12-01T09:23:36;18.88;;;7.85;;
71320;SDS011;59118;54.322;18.576;2022-12-01T09:26:03;18.58;;;7.50;;
71320;SDS011;59118;54.322;18.576;2022-12-01T09:28:29;16.73;;;7.05;;
71320;SDS011;59118;54.322;18.576;2022-12-01T09:30:56;15.83;;;7.17;;
71320;SDS011;59118;54.322;18.576;2022-12-01T09:33:23;15.05;;;7.35;;
71320;SDS011;59118;54.322;18.576;2022-12-01T09:35:51;19.35;;;7.38;;
71320;SDS011;59118;54.322;18.576;2022-12-01T09:38:19;16.80;;;6.65;;
71320;SDS011;59118;54.322;18.576;2022-12-01T09:40:45;15.38;;;6.93;;
71320;SDS011;59118;54.322;18.576;2022-12-01T09:43:15;15.77;;;7.00;;
71320;SDS011;59118;54.322;18.576;2022-12-01T09:45:45;17.15;;;7.03;;
71320;SDS011;59118;54.322;18.576;2022-12-01T09:48:23;15.95;;;7.53;;
71320;SDS011;59118;54.322;18.576;2022-12-01T09:50:53;14.68;;;6.53;;
71320;SDS011;59118;54.322;18.576;2022-12-01T09:53:21;12.43;;;6.05;;
71320;SDS011;59118;54.322;18.576;2022-12-01T09:55:49;13.53;;;5.83;;
71320;SDS011;59118;54.322;18.576;2022-12-01T09:58:17;15.25;;;7.20;;
71320;SDS011;59118;54.322;18.576;2022-12-01T10:00:48;18.10;;;7.40;;
71320;SDS011;59118;54.322;18.576;2022-12-01T10:03:34;15.20;;;6.55;;
71320;SDS011;59118;54.322;18.576;2022-12-01T10:06:12;14.15;;;6.10;;
71320;SDS011;59118;54.322;18.576;2022-12-01T10:11:44;15.13;;;6.57;;
71320;SDS011;59118;54.322;18.576;2022-12-01T10:14:16;15.20;;;6.30;;
71320;SDS011;59118;54.322;18.576;2022-12-01T10:16:54;14.88;;;5.90;;
71320;SDS011;59118;54.322;18.576;2022-12-01T10:20:05;14.15;;;6.00;;
71320;SDS011;59118;54.322;18.576;2022-12-01T10:25:19;16.20;;;5.75;;
71320;SDS011;59118;54.322;18.576;2022-12-01T10:30:33;16.60;;;6.47;;
71320;SDS011;59118;54.322;18.576;2022-12-01T10:35:56;12.53;;;5.50;;
71320;SDS011;59118;54.322;18.576;2022-12-01T10:40:49;18.77;;;7.22;;
71320;SDS011;59118;54.322;18.576;2022-12-01T10:43:16;14.68;;;6.80;;
71320;SDS011;59118;54.322;18.576;2022-12-01T10:45:44;13.60;;;5.88;;
71320;SDS011;59118;54.322;18.576;2022-12-01T10:48:15;15.27;;;6.07;;
71320;SDS011;59118;54.322;18.576;2022-12-01T10:50:44;14.88;;;6.65;;
71320;SDS011;59118;54.322;18.576;2022-12-01T10:56:12;13.30;;;5.43;;
71320;SDS011;59118;54.322;18.576;2022-12-01T10:58:45;14.68;;;6.22;;
71320;SDS011;59118;54.322;18.576;2022-12-01T11:01:15;17.40;;;5.60;;
71320;SDS011;59118;54.322;18.576;2022-12-01T11:03:48;13.98;;;5.18;;
71320;SDS011;59118;54.322;18.576;2022-12-01T11:06:20;10.38;;;4.63;;
71320;SDS011;59118;54.322;18.576;2022-12-01T11:08:54;13.23;;;4.82;;
71320;SDS011;59118;54.322;18.576;2022-12-01T11:14:01;15.03;;;5.43;;
71320;SDS011;59118;54.322;18.576;2022-12-01T11:16:32;14.90;;;5.05;;
71320;SDS011;59118;54.322;18.576;2022-12-01T11:19:49;13.60;;;4.38;;
71320;SDS011;59118;54.322;18.576;2022-12-01T11:22:16;13.77;;;4.93;;
71320;SDS011;59118;54.322;18.576;2022-12-01T11:24:55;10.48;;;4.10;;
71320;SDS011;59118;54.322;18.576;2022-12-01T11:27:25;11.13;;;4.30;;
71320;SDS011;59118;54.322;18.576;2022-12-01T11:29:54;12.93;;;4.80;;
71320;SDS011;59118;54.322;18.576;2022-12-01T11:32:26;12.13;;;4.05;;
71320;SDS011;59118;54.322;18.576;2022-12-01T11:35:05;12.23;;;4.65;;
71320;SDS011;59118;54.322;18.576;2022-12-01T11:37:52;13.73;;;4.30;;
71320;SDS011;59118;54.322;18.576;2022-12-01T11:40:51;11.83;;;4.10;;
71320;SDS011;59118;54.322;18.576;2022-12-01T11:43:24;10.80;;;4.15;;
71320;SDS011;59118;54.322;18.576;2022-12-01T11:46:06;12.15;;;4.57;;
71320;SDS011;59118;54.322;18.576;2022-12-01T11:48:33;9.65;;;3.60;;
71320;SDS011;59118;54.322;18.576;2022-12-01T11:54:04;10.80;;;4.10;;
71320;SDS011;59118;54.322;18.576;2022-12-01T11:56:36;8.63;;;3.10;;
71320;SDS011;59118;54.322;18.576;2022-12-01T11:59:03;9.90;;;3.35;;
71320;SDS011;59118;54.322;18.576;2022-12-01T12:04:53;11.02;;;4.18;;
71320;SDS011;59118;54.322;18.576;2022-12-01T12:19:07;8.40;;;3.30;;
71320;SDS011;59118;54.322;18.576;2022-12-01T12:34:21;12.10;;;4.22;;
71320;SDS011;59118;54.322;18.576;2022-12-01T12:40:01;9.95;;;3.92;;
71320;SDS011;59118;54.322;18.576;2022-12-01T12:45:46;7.95;;;3.15;;
71320;SDS011;59118;54.322;18.576;2022-12-01T12:53:40;9.45;;;3.25;;
71320;SDS011;59118;54.322;18.576;2022-12-01T12:56:11;7.97;;;3.05;;
71320;SDS011;59118;54.322;18.576;2022-12-01T12:58:41;7.00;;;3.28;;
71320;SDS011;59118;54.322;18.576;2022-12-01T13:01:20;10.40;;;3.30;;
71320;SDS011;59118;54.322;18.576;2022-12-01T13:03:57;9.30;;;2.77;;
71320;SDS011;59118;54.322;18.576;2022-12-01T13:06:36;9.73;;;3.60;;
71320;SDS011;59118;54.322;18.576;2022-12-01T13:09:10;8.75;;;2.90;;
71320;SDS011;59118;54.322;18.576;2022-12-01T13:11:47;7.82;;;2.92;;
71320;SDS011;59118;54.322;18.576;2022-12-01T13:14:33;9.88;;;3.50;;
71320;SDS011;59118;54.322;18.576;2022-12-01T13:17:47;10.43;;;3.87;;
71320;SDS011;59118;54.322;18.576;2022-12-01T13:19:56;9.32;;;3.65;;
71320;SDS011;59118;54.322;18.576;2022-12-01T13:22:23;8.75;;;3.22;;
71320;SDS011;59118;54.322;18.576;2022-12-01T13:24:56;11.07;;;3.60;;
71320;SDS011;59118;54.322;18.576;2022-12-01T13:27:23;7.82;;;2.95;;
71320;SDS011;59118;54.322;18.576;2022-12-01T13:29:52;7.50;;;2.63;;
71320;SDS011;59118;54.322;18.576;2022-12-01T13:32:54;8.05;;;2.95;;
71320;SDS011;59118;54.322;18.576;2022-12-01T13:38:17;7.22;;;2.78;;
71320;SDS011;59118;54.322;18.576;2022-12-01T13:40:45;7.53;;;3.13;;
71320;SDS011;59118;54.322;18.576;2022-12-01T13:43:16;10.03;;;3.03;;
71320;SDS011;59118;54.322;18.576;2022-12-01T13:45:44;7.45;;;2.95;;
71320;SDS011;59118;54.322;18.576;2022-12-01T13:51:03;7.55;;;2.65;;
71320;SDS011;59118;54.322;18.576;2022-12-01T13:53:36;9.80;;;3.63;;
71320;SDS011;59118;54.322;18.576;2022-12-01T13:58:48;9.75;;;3.53;;
71320;SDS011;59118;54.322;18.576;2022-12-01T14:06:36;11.43;;;4.38;;
71320;SDS011;59118;54.322;18.576;2022-12-01T14:09:05;11.27;;;3.73;;
71320;SDS011;59118;54.322;18.576;2022-12-01T14:11:39;11.15;;;3.75;;
71320;SDS011;59118;54.322;18.576;2022-12-01T14:14:15;11.18;;;3.60;;
71320;SDS011;59118;54.322;18.576;2022-12-01T14:16:54;10.38;;;3.70;;
71320;SDS011;59118;54.322;18.576;2022-12-01T14:24:59;8.07;;;3.17;;
71320;SDS011;59118;54.322;18.576;2022-12-01T14:27:34;9.48;;;3.55;;
71320;SDS011;59118;54.322;18.576;2022-12-01T14:38:50;7.45;;;3.08;;
71320;SDS011;59118;54.322;18.576;2022-12-01T14:41:26;8.32;;;2.70;;
71320;SDS011;59118;54.322;18.576;2022-12-01T14:43:58;8.45;;;2.88;;
71320;SDS011;59118;54.322;18.576;2022-12-01T14:46:44;10.45;;;3.10;;
71320;SDS011;59118;54.322;18.576;2022-12-01T14:49:24;11.50;;;2.90;;
71320;SDS011;59118;54.322;18.576;2022-12-01T14:51:55;9.95;;;2.90;;
71320;SDS011;59118;54.322;18.576;2022-12-01T14:54:26;8.15;;;3.22;;
71320;SDS011;59118;54.322;18.576;2022-12-01T14:56:56;9.38;;;3.28;;
71320;SDS011;59118;54.322;18.576;2022-12-01T14:59:32;8.10;;;2.95;;
71320;SDS011;59118;54.322;18.576;2022-12-01T15:02:01;8.30;;;2.80;;
71320;SDS011;59118;54.322;18.576;2022-12-01T15:07:41;8.70;;;3.67;;
71320;SDS011;59118;54.322;18.576;2022-12-01T15:10:14;10.73;;;3.35;;
71320;SDS011;59118;54.322;18.576;2022-12-01T15:12:47;8.98;;;3.50;;
71320;SDS011;59118;54.322;18.576;2022-12-01T15:17:46;11.07;;;4.07;;
71320;SDS011;59118;54.322;18.576;2022-12-01T15:22:54;10.43;;;4.00;;
71320;SDS011;59118;54.322;18.576;2022-12-01T15:25:21;11.30;;;3.33;;
71320;SDS011;59118;54.322;18.576;2022-12-01T15:30:42;9.82;;;3.40;;
71320;SDS011;59118;54.322;18.576;2022-12-01T15:33:14;11.05;;;4.18;;
71320;SDS011;59118;54.322;18.576;2022-12-01T15:35:53;11.02;;;3.67;;
71320;SDS011;59118;54.322;18.576;2022-12-01T15:38:21;9.85;;;3.15;;
71320;SDS011;59118;54.322;18.576;2022-12-01T15:40:53;10.50;;;3.77;;
71320;SDS011;59118;54.322;18.576;2022-12-01T15:43:40;9.80;;;3.70;;
71320;SDS011;59118;54.322;18.576;2022-12-01T15:46:13;10.10;;;4.03;;
71320;SDS011;59118;54.322;18.576;2022-12-01T15:48:42;14.68;;;3.85;;
71320;SDS011;59118;54.322;18.576;2022-12-01T15:51:23;9.30;;;3.45;;
71320;SDS011;59118;54.322;18.576;2022-12-01T15:53:54;13.10;;;4.37;;
71320;SDS011;59118;54.322;18.576;2022-12-01T15:56:28;9.73;;;4.22;;
71320;SDS011;59118;54.322;18.576;2022-12-01T15:59:06;11.73;;;4.80;;
71320;SDS011;59118;54.322;18.576;2022-12-01T16:01:34;12.02;;;4.68;;
71320;SDS011;59118;54.322;18.576;2022-12-01T16:04:03;11.27;;;4.32;;
71320;SDS011;59118;54.322;18.576;2022-12-01T16:06:32;12.93;;;4.00;;
71320;SDS011;59118;54.322;18.576;2022-12-01T16:14:35;10.18;;;4.13;;
71320;SDS011;59118;54.322;18.576;2022-12-01T16:17:03;13.32;;;5.10;;
71320;SDS011;59118;54.322;18.576;2022-12-01T16:19:33;10.87;;;4.17;;
71320;SDS011;59118;54.322;18.576;2022-12-01T16:24:41;13.05;;;4.55;;
71320;SDS011;59118;54.322;18.576;2022-12-01T16:27:21;11.70;;;4.07;;
71320;SDS011;59118;54.322;18.576;2022-12-01T16:29:54;10.85;;;4.32;;
71320;SDS011;59118;54.322;18.576;2022-12-01T16:35:01;11.60;;;4.70;;
71320;SDS011;59118;54.322;18.576;2022-12-01T16:37:30;17.52;;;6.53;;
71320;SDS011;59118;54.322;18.576;2022-12-01T16:39:56;19.73;;;7.72;;
71320;SDS011;59118;54.322;18.576;2022-12-01T16:42:23;23.85;;;9.32;;
71320;SDS011;59118;54.322;18.576;2022-12-01T16:44:50;20.43;;;8.73;;
71320;SDS011;59118;54.322;18.576;2022-12-01T16:49:54;20.23;;;8.50;;
71320;SDS011;59118;54.322;18.576;2022-12-01T16:52:21;26.60;;;9.52;;
71320;SDS011;59118;54.322;18.576;2022-12-01T16:58:05;29.07;;;9.90;;
71320;SDS011;59118;54.322;18.576;2022-12-01T17:00:31;27.75;;;11.88;;
71320;SDS011;59118;54.322;18.576;2022-12-01T17:02:58;35.83;;;13.18;;
71320;SDS011;59118;54.322;18.576;2022-12-01T17:05:25;31.70;;;12.43;;
71320;SDS011;59118;54.322;18.576;2022-12-01T17:07:53;31.48;;;13.25;;
71320;SDS011;59118;54.322;18.576;2022-12-01T17:10:20;31.17;;;12.57;;
71320;SDS011;59118;54.322;18.576;2022-12-01T17:12:48;27.13;;;12.00;;
71320;SDS011;59118;54.322;18.576;2022-12-01T17:15:16;30.85;;;11.73;;
71320;SDS011;59118;54.322;18.576;2022-12-01T17:17:43;33.42;;;12.43;;
71320;SDS011;59118;54.322;18.576;2022-12-01T17:20:09;23.77;;;9.52;;
71320;SDS011;59118;54.322;18.576;2022-12-01T17:22:36;26.10;;;11.23;;
71320;SDS011;59118;54.322;18.576;2022-12-01T17:25:03;28.88;;;11.20;;
71320;SDS011;59118;54.322;18.576;2022-12-01T17:27:36;29.50;;;11.63;;
71320;SDS011;59118;54.322;18.576;2022-12-01T17:30:04;26.15;;;11.07;;
71320;SDS011;59118;54.322;18.576;2022-12-01T17:32:32;30.60;;;12.52;;
71320;SDS011;59118;54.322;18.576;2022-12-01T17:34:58;35.07;;;13.87;;
71320;SDS011;59118;54.322;18.576;2022-12-01T17:37:26;37.80;;;14.45;;
71320;SDS011;59118;54.322;18.576;2022-12-01T17:39:53;46.80;;;16.55;;
71320;SDS011;59118;54.322;18.576;2022-12-01T17:42:22;43.00;;;14.38;;
71320;SDS011;59118;54.322;18.576;2022-12-01T17:44:48;40.65;;;14.25;;